createdAt,value
2023-02-02T00:02:27.903Z,5.79
2023-02-02T00:05:01.559Z,5.80
2023-02-02T00:07:42.165Z,5.81
2023-02-02T00:10:21.580Z,5.83
2023-02-02T00:13:12.270Z,5.85
2023-02-02T00:15:55.106Z,5.84
2023-02-02T00:18:45.740Z,5.84
2023-02-02T00:21:37.978Z,5.84
2023-02-02T00:24:20.056Z,5.84
2023-02-02T00:26:52.601Z,5.85
2023-02-02T00:29:34.028Z,5.87
2023-02-02T00:32:13.795Z,5.91
2023-02-02T00:35:04.563Z,5.95
2023-02-02T00:37:55.185Z,5.97
2023-02-02T00:40:45.864Z,5.98
2023-02-02T00:43:27.002Z,6.01
2023-02-02T00:46:19.857Z,6.02
2023-02-02T00:49:01.421Z,6.02
2023-02-02T00:51:52.068Z,6.03
2023-02-02T00:54:42.723Z,6.05
2023-02-02T00:57:16.924Z,6.07
2023-02-02T00:59:50.555Z,6.08
2023-02-02T01:02:41.681Z,6.08
2023-02-02T01:05:32.328Z,6.09
2023-02-02T01:08:23.099Z,6.08
2023-02-02T01:11:13.704Z,6.06
2023-02-02T01:14:04.982Z,6.05
2023-02-02T01:16:40.741Z,6.06
2023-02-02T01:19:20.643Z,6.05
2023-02-02T01:22:11.848Z,6.05
2023-02-02T01:24:53.326Z,6.07
2023-02-02T01:27:44.072Z,6.08
2023-02-02T01:30:27.640Z,6.08
2023-02-02T01:33:19.123Z,6.07
2023-02-02T01:35:54.006Z,6.01
2023-02-02T01:38:30.238Z,5.93
2023-02-02T01:41:13.858Z,5.86
2023-02-02T01:43:57.118Z,5.82
2023-02-02T01:46:40.800Z,5.79
2023-02-02T01:49:15.755Z,5.78
2023-02-02T01:52:00.203Z,5.79
2023-02-02T01:54:36.776Z,5.84
2023-02-02T01:57:24.180Z,5.89
2023-02-02T02:00:00.145Z,5.95
2023-02-02T02:02:32.777Z,5.98
2023-02-02T02:05:16.967Z,5.97
2023-02-02T02:08:14.750Z,5.96
2023-02-02T02:10:45.933Z,6.00
2023-02-02T02:13:57.395Z,6.02
2023-02-02T02:16:51.534Z,6.02
2023-02-02T02:20:17.102Z,6.05
2023-02-02T02:23:31.171Z,6.10
2023-02-02T02:26:36.621Z,6.14
2023-02-02T02:29:40.781Z,6.19
2023-02-02T02:32:34.172Z,6.25
2023-02-02T02:35:28.765Z,6.29
2023-02-02T02:38:20.946Z,6.32
2023-02-02T02:41:17.842Z,6.33
2023-02-02T02:44:05.967Z,6.31
2023-02-02T02:46:52.165Z,6.27
2023-02-02T02:49:47.517Z,6.21
2023-02-02T02:52:18.398Z,6.21
2023-02-02T02:54:54.689Z,6.18
2023-02-02T02:57:57.002Z,6.15
2023-02-02T03:01:01.269Z,6.14
2023-02-02T03:03:46.245Z,6.11
2023-02-02T03:06:33.750Z,6.09
2023-02-02T03:09:16.017Z,6.11
2023-02-02T03:12:07.812Z,6.11
2023-02-02T03:14:43.252Z,6.08
2023-02-02T03:17:34.014Z,6.02
2023-02-02T03:20:08.183Z,5.98
2023-02-02T03:22:52.475Z,5.94
2023-02-02T03:25:24.074Z,5.91
2023-02-02T03:28:05.269Z,5.89
2023-02-02T03:30:41.480Z,5.89
2023-02-02T03:33:33.548Z,5.91
2023-02-02T03:36:13.173Z,5.97
2023-02-02T03:38:43.527Z,6.03
2023-02-02T03:41:16.468Z,6.07
2023-02-02T03:43:47.015Z,6.13
2023-02-02T03:46:20.359Z,6.12
2023-02-02T03:49:11.029Z,6.09
2023-02-02T03:51:44.638Z,6.06
2023-02-02T03:54:20.007Z,5.99
2023-02-02T03:56:50.603Z,5.93
2023-02-02T03:59:23.590Z,5.89
2023-02-02T04:02:14.327Z,5.83
2023-02-02T04:05:05.805Z,5.78
2023-02-02T04:07:45.319Z,5.75
2023-02-02T04:10:19.994Z,5.72
2023-02-02T04:13:10.513Z,5.73
2023-02-02T04:16:02.328Z,5.71
2023-02-02T04:18:46.775Z,5.67
2023-02-02T04:21:37.499Z,5.63
2023-02-02T04:24:28.182Z,5.60
2023-02-02T04:27:18.973Z,5.58
2023-02-02T04:29:49.547Z,5.59
2023-02-02T04:32:20.570Z,5.60
2023-02-02T04:35:11.621Z,5.60
2023-02-02T04:37:44.752Z,5.60
2023-02-02T04:40:16.930Z,5.60
2023-02-02T04:43:07.731Z,5.59
2023-02-02T04:45:48.308Z,5.60
2023-02-02T04:48:40.976Z,5.60
2023-02-02T04:51:25.288Z,5.61
2023-02-02T04:54:16.096Z,5.62
2023-02-02T04:56:49.122Z,5.65
2023-02-02T04:59:19.743Z,5.67
2023-02-02T05:02:10.451Z,5.69
2023-02-02T05:04:51.172Z,5.73
2023-02-02T05:07:34.991Z,5.76
2023-02-02T05:10:07.686Z,5.80
2023-02-02T05:12:58.557Z,5.83
2023-02-02T05:15:49.661Z,5.87
2023-02-02T05:18:25.590Z,5.91
2023-02-02T05:21:02.099Z,5.94
2023-02-02T05:23:35.750Z,5.96
2023-02-02T05:26:06.507Z,5.98
2023-02-02T05:28:41.211Z,6.03
2023-02-02T05:31:32.162Z,6.07
2023-02-02T05:34:06.864Z,6.11
2023-02-02T05:37:07.743Z,6.13
2023-02-02T05:39:58.562Z,6.15
2023-02-02T05:42:51.415Z,6.18
2023-02-02T05:45:42.111Z,6.20
2023-02-02T05:48:15.886Z,6.21
2023-02-02T05:51:01.866Z,6.20
2023-02-02T05:53:44.924Z,6.21
2023-02-02T05:56:18.546Z,6.24
2023-02-02T05:58:51.465Z,6.27
2023-02-02T06:01:42.394Z,6.28
2023-02-02T06:04:33.120Z,6.27
2023-02-02T06:07:16.630Z,6.30
2023-02-02T06:10:06.928Z,6.35
2023-02-02T06:12:56.148Z,6.37
2023-02-02T06:15:45.343Z,6.37
2023-02-02T06:18:38.727Z,6.37
2023-02-02T06:21:31.204Z,6.41
2023-02-02T06:24:05.013Z,6.41
2023-02-02T06:26:40.355Z,6.40
2023-02-02T06:29:15.003Z,6.37
2023-02-02T06:31:44.060Z,6.35
2023-02-02T06:34:24.748Z,6.33
2023-02-02T06:37:15.475Z,6.34
2023-02-02T06:39:48.520Z,6.32
2023-02-02T06:42:22.232Z,6.32
2023-02-02T06:45:01.394Z,6.32
2023-02-02T06:47:53.602Z,6.32
2023-02-02T06:50:24.406Z,6.31
2023-02-02T06:52:55.457Z,6.30
2023-02-02T06:55:53.272Z,6.30
2023-02-02T06:58:24.367Z,6.30
2023-02-02T07:01:15.928Z,6.32
2023-02-02T07:03:51.521Z,6.31
2023-02-02T07:06:36.035Z,6.31
2023-02-02T07:09:19.774Z,6.33
2023-02-02T07:12:00.319Z,6.32
2023-02-02T07:14:33.728Z,6.32
2023-02-02T07:17:07.155Z,6.32
2023-02-02T07:19:37.760Z,6.32
2023-02-02T07:22:11.156Z,6.33
2023-02-02T07:25:02.040Z,6.33
2023-02-02T07:27:33.078Z,6.35
2023-02-02T07:30:25.664Z,6.35
2023-02-02T07:33:06.631Z,6.37
2023-02-02T07:35:57.397Z,6.38
2023-02-02T07:38:49.778Z,6.38
2023-02-02T07:41:34.910Z,6.38
2023-02-02T07:44:07.066Z,6.38
2023-02-02T07:46:57.884Z,6.40
2023-02-02T07:49:31.507Z,6.40
2023-02-02T07:52:22.385Z,6.39
2023-02-02T07:55:05.329Z,6.42
2023-02-02T07:57:45.886Z,6.43
2023-02-02T08:00:27.872Z,6.44
2023-02-02T08:03:04.268Z,6.45
2023-02-02T08:05:38.006Z,6.47
2023-02-02T08:08:18.697Z,6.47
2023-02-02T08:10:53.459Z,6.49
2023-02-02T08:13:23.996Z,6.52
2023-02-02T08:16:15.033Z,6.57
2023-02-02T08:18:57.379Z,6.58
2023-02-02T08:21:48.098Z,6.58
2023-02-02T08:24:40.599Z,6.58
2023-02-02T08:27:31.699Z,6.59
2023-02-02T08:30:15.173Z,6.59
2023-02-02T08:32:48.206Z,6.59
2023-02-02T08:35:28.967Z,6.61
2023-02-02T08:38:02.921Z,6.61
2023-02-02T08:40:53.705Z,6.62
2023-02-02T08:43:44.737Z,6.63
2023-02-02T08:46:36.809Z,6.65
2023-02-02T08:49:27.944Z,6.66
2023-02-02T08:52:18.986Z,6.68
2023-02-02T08:55:02.126Z,6.70
2023-02-02T08:57:35.281Z,6.72
2023-02-02T09:00:26.662Z,6.76
2023-02-02T09:02:59.755Z,6.77
2023-02-02T09:05:50.550Z,6.77
2023-02-02T09:08:42.060Z,6.78
2023-02-02T09:11:24.516Z,6.79
2023-02-02T09:14:07.018Z,6.80
2023-02-02T09:16:41.780Z,6.83
2023-02-02T09:19:14.787Z,6.84
2023-02-02T09:22:05.732Z,6.85
2023-02-02T09:24:56.656Z,6.86
2023-02-02T09:27:27.583Z,6.88
2023-02-02T09:30:09.886Z,6.91
2023-02-02T09:33:00.723Z,6.98
2023-02-02T09:35:34.706Z,7.04
2023-02-02T09:38:09.958Z,7.09
2023-02-02T09:40:48.647Z,7.12
2023-02-02T09:43:52.899Z,7.16
2023-02-02T09:46:33.067Z,7.20
2023-02-02T09:49:29.549Z,7.22
2023-02-02T09:52:17.610Z,7.24
2023-02-02T09:54:51.257Z,7.27
2023-02-02T09:57:46.118Z,7.28
2023-02-02T10:00:32.581Z,7.28
2023-02-02T10:03:20.328Z,7.29
2023-02-02T10:06:02.555Z,7.30
2023-02-02T10:08:40.295Z,7.30
2023-02-02T10:11:38.402Z,7.34
2023-02-02T10:14:19.594Z,7.35
2023-02-02T10:17:09.438Z,7.38
2023-02-02T10:20:12.170Z,7.39
2023-02-02T10:22:54.952Z,7.40
2023-02-02T10:25:30.753Z,7.40
2023-02-02T10:28:18.270Z,7.40
2023-02-02T10:31:19.553Z,7.40
2023-02-02T10:34:23.137Z,7.41
2023-02-02T10:37:09.859Z,7.42
2023-02-02T10:40:13.152Z,7.42
2023-02-02T10:43:36.494Z,7.43
2023-02-02T10:46:26.156Z,7.42
2023-02-02T10:49:12.273Z,7.42
2023-02-02T10:51:46.897Z,7.41
2023-02-02T10:54:58.118Z,7.41
2023-02-02T10:58:12.601Z,7.41
2023-02-02T11:00:53.149Z,7.41
2023-02-02T11:03:44.216Z,7.41
2023-02-02T11:06:43.066Z,7.42
2023-02-02T11:09:18.966Z,7.41
2023-02-02T11:11:56.812Z,7.41
2023-02-02T11:14:45.252Z,7.42
2023-02-02T11:17:29.439Z,7.43
2023-02-02T11:20:33.479Z,7.43
2023-02-02T11:23:07.515Z,7.45
2023-02-02T11:25:41.348Z,7.46
2023-02-02T11:28:21.331Z,7.46
2023-02-02T11:31:12.982Z,7.47
2023-02-02T11:33:51.406Z,7.48
2023-02-02T11:36:23.289Z,7.51
2023-02-02T11:39:18.288Z,7.54
2023-02-02T11:41:49.341Z,7.56
2023-02-02T11:44:41.704Z,7.58
2023-02-02T11:47:34.668Z,7.59
2023-02-02T11:50:07.919Z,7.61
2023-02-02T11:52:41.365Z,7.63
2023-02-02T11:55:29.401Z,7.64
2023-02-02T11:58:27.692Z,7.66
2023-02-02T12:01:26.714Z,7.69
2023-02-02T12:03:59.481Z,7.71
2023-02-02T12:06:42.984Z,7.75
2023-02-02T12:09:22.278Z,7.78
2023-02-02T12:12:17.539Z,7.79
2023-02-02T12:14:59.362Z,7.81
2023-02-02T12:17:40.472Z,7.81
2023-02-02T12:20:27.807Z,7.83
2023-02-02T12:23:38.649Z,7.86
2023-02-02T12:26:25.977Z,7.89
2023-02-02T12:29:13.952Z,7.92
2023-02-02T12:32:12.378Z,7.96
2023-02-02T12:35:05.923Z,7.99
2023-02-02T12:37:51.133Z,8.06
2023-02-02T12:40:40.350Z,8.10
2023-02-02T12:43:24.648Z,8.16
2023-02-02T12:46:20.012Z,8.21
2023-02-02T12:49:26.893Z,8.25
2023-02-02T12:52:34.233Z,8.30
2023-02-02T12:55:18.953Z,8.30
2023-02-02T12:58:09.220Z,8.32
2023-02-02T13:01:26.205Z,8.35
2023-02-02T13:04:34.959Z,8.37
2023-02-02T13:07:28.171Z,8.36
2023-02-02T13:10:17.473Z,8.36
2023-02-02T13:12:53.207Z,8.34
2023-02-02T13:15:28.482Z,8.32
2023-02-02T13:18:16.497Z,8.29
2023-02-02T13:20:54.281Z,8.28
2023-02-02T13:23:38.330Z,8.27
2023-02-02T13:26:35.347Z,8.27
2023-02-02T13:29:27.949Z,8.24
2023-02-02T13:32:17.217Z,8.25
2023-02-02T13:34:52.445Z,8.25
2023-02-02T13:37:42.019Z,8.25
2023-02-02T13:40:36.939Z,8.28
2023-02-02T13:43:21.723Z,8.30
2023-02-02T13:46:06.168Z,8.33
2023-02-02T13:49:02.998Z,8.35
2023-02-02T13:52:09.807Z,8.36
2023-02-02T13:55:00.648Z,8.37
2023-02-02T14:00:43.183Z,8.41
2023-02-02T14:03:38.686Z,8.42
2023-02-02T14:06:17.974Z,8.44
2023-02-02T14:09:18.557Z,8.45
2023-02-02T14:11:59.116Z,8.48
2023-02-02T14:14:35.212Z,8.48
2023-02-02T14:17:32.155Z,8.48
2023-02-02T14:20:45.216Z,8.48
2023-02-02T14:23:52.722Z,8.48
2023-02-02T14:26:44.061Z,8.50
2023-02-02T14:29:42.061Z,8.51
2023-02-02T14:32:34.826Z,8.52
2023-02-02T14:35:43.872Z,8.51
2023-02-02T14:38:37.130Z,8.50
2023-02-02T14:41:39.669Z,8.48
2023-02-02T14:44:11.585Z,8.48
2023-02-02T14:46:48.369Z,8.48
2023-02-02T14:49:25.574Z,8.47
2023-02-02T14:52:01.509Z,8.46
2023-02-02T14:54:49.981Z,8.46
2023-02-02T14:57:34.299Z,8.44
2023-02-02T15:00:21.520Z,8.42
2023-02-02T15:02:53.817Z,8.41
2023-02-02T15:05:43.964Z,8.39
2023-02-02T15:08:25.569Z,8.35
2023-02-02T15:11:32.169Z,8.32
2023-02-02T15:14:16.186Z,8.33
2023-02-02T15:17:02.838Z,8.30
2023-02-02T15:20:01.325Z,8.29
2023-02-02T15:22:36.481Z,8.27
2023-02-02T15:25:18.530Z,8.26
2023-02-02T15:28:03.678Z,8.26
2023-02-02T15:30:40.171Z,8.25
2023-02-02T15:33:29.453Z,8.26
2023-02-02T15:36:17.597Z,8.25
2023-02-02T15:39:12.615Z,8.24
2023-02-02T15:41:47.824Z,8.24
2023-02-02T15:44:29.701Z,8.23
2023-02-02T15:47:17.610Z,8.22
2023-02-02T15:49:51.239Z,8.20
2023-02-02T15:52:29.796Z,8.18
2023-02-02T15:55:22.791Z,8.17
2023-02-02T15:57:56.216Z,8.16
2023-02-02T16:00:33.390Z,8.13
2023-02-02T16:03:31.940Z,8.13
2023-02-02T16:06:12.761Z,8.13
2023-02-02T16:08:56.229Z,8.14
2023-02-02T16:11:48.953Z,8.14
2023-02-02T16:14:23.894Z,8.12
2023-02-02T16:17:20.810Z,8.11
2023-02-02T16:20:01.897Z,8.11
2023-02-02T16:22:36.679Z,8.10
2023-02-02T16:25:13.599Z,8.08
2023-02-02T16:28:05.264Z,8.05
2023-02-02T16:30:51.818Z,8.04
2023-02-02T16:33:37.278Z,8.03
2023-02-02T16:36:25.742Z,8.02
2023-02-02T16:39:23.582Z,7.98
2023-02-02T16:41:54.149Z,7.95
2023-02-02T16:44:38.391Z,7.90
2023-02-02T16:47:34.749Z,7.84
2023-02-02T16:50:30.041Z,7.81
2023-02-02T16:53:26.016Z,7.76
2023-02-02T16:56:27.708Z,7.72
2023-02-02T16:59:19.854Z,7.70
2023-02-02T17:01:56.949Z,7.70
2023-02-02T17:04:37.972Z,7.68
2023-02-02T17:07:30.684Z,7.70
2023-02-02T17:10:22.581Z,7.72
2023-02-02T17:12:56.537Z,7.72
2023-02-02T17:15:38.528Z,7.72
2023-02-02T17:18:29.332Z,7.73
2023-02-02T17:21:22.571Z,7.74
2023-02-02T17:23:55.360Z,7.74
2023-02-02T17:26:40.224Z,7.74
2023-02-02T17:29:16.003Z,7.73
2023-02-02T17:32:07.387Z,7.74
2023-02-02T17:34:37.895Z,7.72
2023-02-02T17:37:28.698Z,7.71
2023-02-02T17:40:01.709Z,7.72
2023-02-02T17:42:36.544Z,7.70
2023-02-02T17:45:14.856Z,7.67
2023-02-02T17:47:48.797Z,7.63
2023-02-02T17:50:31.566Z,7.63
2023-02-02T17:53:15.647Z,7.59
2023-02-02T17:55:59.536Z,7.54
2023-02-02T17:58:40.092Z,7.51
2023-02-02T18:01:30.904Z,7.47
2023-02-02T18:04:14.158Z,7.45
2023-02-02T18:06:50.367Z,7.42
2023-02-02T18:09:23.354Z,7.41
2023-02-02T18:11:57.044Z,7.39
2023-02-02T18:14:47.763Z,7.36
2023-02-02T18:17:21.261Z,7.35
2023-02-02T18:19:56.003Z,7.35
2023-02-02T18:22:31.922Z,7.33
2023-02-02T18:25:16.948Z,7.31
2023-02-02T18:27:58.680Z,7.29
2023-02-02T18:30:29.411Z,7.28
2023-02-02T18:33:12.495Z,7.28
2023-02-02T18:35:49.442Z,7.29
2023-02-02T18:38:42.354Z,7.27
2023-02-02T18:41:13.214Z,7.25
2023-02-02T18:44:04.077Z,7.23
2023-02-02T18:46:34.793Z,7.20
2023-02-02T18:49:05.427Z,7.17
2023-02-02T18:51:56.333Z,7.12
2023-02-02T18:54:29.664Z,7.09
2023-02-02T18:57:00.557Z,7.06
2023-02-02T18:59:41.358Z,7.04
2023-02-02T19:02:22.643Z,7.01
2023-02-02T19:05:09.124Z,6.99
2023-02-02T19:08:00.018Z,6.97
2023-02-02T19:10:43.663Z,6.95
2023-02-02T19:13:24.426Z,6.92
2023-02-02T19:16:22.945Z,6.90
2023-02-02T19:19:05.577Z,6.88
2023-02-02T19:21:59.138Z,6.85
2023-02-02T19:24:39.213Z,6.83
2023-02-02T19:27:22.727Z,6.82
2023-02-02T19:30:02.866Z,6.79
2023-02-02T19:32:36.128Z,6.75
2023-02-02T19:35:28.854Z,6.69
2023-02-02T19:38:16.202Z,6.63
2023-02-02T19:41:18.396Z,6.57
2023-02-02T19:44:07.109Z,6.52
2023-02-02T19:46:43.344Z,6.48
2023-02-02T19:49:37.504Z,6.46
2023-02-02T19:52:29.706Z,6.42
2023-02-02T19:55:28.282Z,6.40
2023-02-02T19:58:23.773Z,6.38
2023-02-02T20:01:07.792Z,6.36
2023-02-02T20:03:45.439Z,6.34
2023-02-02T20:06:26.393Z,6.32
2023-02-02T20:08:57.163Z,6.30
2023-02-02T20:11:51.439Z,6.28
2023-02-02T20:14:32.243Z,6.27
2023-02-02T20:17:07.711Z,6.26
2023-02-02T20:19:46.567Z,6.26
2023-02-02T20:22:25.302Z,6.25
2023-02-02T20:25:02.235Z,6.24
2023-02-02T20:27:35.346Z,6.23
2023-02-02T20:30:21.088Z,6.22
2023-02-02T20:32:59.188Z,6.22
2023-02-02T20:35:37.701Z,6.21
2023-02-02T20:38:21.947Z,6.20
2023-02-02T20:40:55.953Z,6.19
2023-02-02T20:43:29.238Z,6.18
2023-02-02T20:45:59.875Z,6.18
2023-02-02T20:48:30.366Z,6.18
2023-02-02T20:51:11.228Z,6.17
2023-02-02T20:53:42.406Z,6.16
2023-02-02T20:56:13.293Z,6.16
2023-02-02T20:58:46.191Z,6.15
2023-02-02T21:01:17.425Z,6.15
2023-02-02T21:03:58.325Z,6.14
2023-02-02T21:06:32.253Z,6.14
2023-02-02T21:09:07.718Z,6.13
2023-02-02T21:11:39.131Z,6.14
2023-02-02T21:14:08.627Z,6.14
2023-02-02T21:16:42.059Z,6.13
2023-02-02T21:19:15.660Z,6.13
2023-02-02T21:22:06.417Z,6.13
2023-02-02T21:24:46.078Z,6.13
2023-02-02T21:27:19.070Z,6.12
2023-02-02T21:29:49.675Z,6.13
2023-02-02T21:32:23.246Z,6.12
2023-02-02T21:34:53.955Z,6.11
2023-02-02T21:37:24.492Z,6.12
2023-02-02T21:39:59.924Z,6.12
2023-02-02T21:42:37.438Z,6.11
2023-02-02T21:45:34.696Z,6.12
2023-02-02T21:48:30.439Z,6.12
2023-02-02T21:51:18.414Z,6.13
2023-02-02T21:53:51.374Z,6.13
2023-02-02T21:56:33.747Z,6.14
2023-02-02T21:59:13.011Z,6.14
2023-02-02T22:01:48.260Z,6.15
2023-02-02T22:04:39.555Z,6.15
2023-02-02T22:07:16.295Z,6.15
2023-02-02T22:09:58.688Z,6.16
2023-02-02T22:12:33.676Z,6.16
2023-02-02T22:15:19.749Z,6.17
2023-02-02T22:17:50.331Z,6.18
2023-02-02T22:20:34.118Z,6.18
2023-02-02T22:23:11.872Z,6.19
2023-02-02T22:25:43.395Z,6.18
2023-02-02T22:28:23.895Z,6.19
2023-02-02T22:30:56.089Z,6.20
2023-02-02T22:33:34.232Z,6.19
2023-02-02T22:36:14.907Z,6.19
2023-02-02T22:38:45.576Z,6.19
2023-02-02T22:41:16.330Z,6.19
2023-02-02T22:43:47.038Z,6.20
2023-02-02T22:46:30.909Z,6.19
2023-02-02T22:49:01.452Z,6.19
2023-02-02T22:51:34.722Z,6.18
2023-02-02T22:54:12.669Z,6.19
2023-02-02T22:56:54.194Z,6.19
2023-02-02T22:59:27.318Z,6.20
2023-02-02T23:02:00.964Z,6.20
2023-02-02T23:04:33.712Z,6.22
2023-02-02T23:07:06.818Z,6.22
2023-02-02T23:09:39.668Z,6.22
2023-02-02T23:12:12.505Z,6.22
2023-02-02T23:14:53.576Z,6.22
2023-02-02T23:17:28.885Z,6.22
2023-02-02T23:20:12.454Z,6.23
2023-02-02T23:22:43.476Z,6.23
2023-02-02T23:25:14.647Z,6.23
2023-02-02T23:27:45.186Z,6.24
2023-02-02T23:30:21.056Z,6.25
2023-02-02T23:32:54.082Z,6.25
2023-02-02T23:35:35.756Z,6.25
2023-02-02T23:38:08.583Z,6.25
2023-02-02T23:40:41.587Z,6.26
2023-02-02T23:43:21.223Z,6.25
2023-02-02T23:45:54.877Z,6.25
2023-02-02T23:48:25.891Z,6.24
2023-02-02T23:50:56.573Z,6.24
2023-02-02T23:53:32.651Z,6.25
2023-02-02T23:56:06.365Z,6.25
2023-02-02T23:58:45.846Z,6.25
